createdAt,value
2023-05-15T00:00:06.721Z,4.30
2023-05-15T00:03:00.455Z,4.70
2023-05-15T00:05:29.103Z,4.30
2023-05-15T00:07:57.461Z,4.40
2023-05-15T00:10:25.711Z,4.70
2023-05-15T00:12:53.965Z,4.60
2023-05-15T00:15:22.108Z,4.60
2023-05-15T00:17:50.224Z,4.80
2023-05-15T00:20:18.536Z,4.30
2023-05-15T00:22:46.685Z,4.80
2023-05-15T00:25:15.317Z,4.60
2023-05-15T00:27:43.415Z,5.00
2023-05-15T00:30:12.140Z,4.80
2023-05-15T00:32:40.848Z,4.70
2023-05-15T00:35:09.289Z,4.90
2023-05-15T00:37:37.403Z,4.70
2023-05-15T00:40:06.878Z,4.90
2023-05-15T00:42:36.133Z,4.70
2023-05-15T00:45:15.494Z,4.90
2023-05-15T00:47:44.395Z,4.60
2023-05-15T00:50:12.813Z,4.80
2023-05-15T00:52:41.126Z,4.90
2023-05-15T00:55:09.611Z,4.90
2023-05-15T00:57:38.306Z,4.70
2023-05-15T01:00:10.592Z,4.70
2023-05-15T01:02:39.031Z,5.30
2023-05-15T01:05:09.277Z,5.10
2023-05-15T01:07:45.546Z,4.80
2023-05-15T01:10:15.436Z,4.70
2023-05-15T01:12:46.213Z,4.80
2023-05-15T01:15:14.425Z,4.90
2023-05-15T01:17:42.647Z,5.40
2023-05-15T01:20:12.266Z,4.60
2023-05-15T01:23:06.347Z,4.50
2023-05-15T01:25:34.529Z,4.50
2023-05-15T01:28:15.500Z,4.50
2023-05-15T01:30:45.912Z,4.40
2023-05-15T01:33:34.501Z,4.70
2023-05-15T01:36:16.628Z,4.80
2023-05-15T01:38:53.198Z,4.60
2023-05-15T01:41:28.702Z,4.30
2023-05-15T01:46:51.300Z,4.50
2023-05-15T01:49:26.525Z,4.40
2023-05-15T01:52:22.498Z,4.60
2023-05-15T01:54:51.594Z,4.40
2023-05-15T01:57:21.190Z,4.80
2023-05-15T01:59:51.577Z,5.00
2023-05-15T02:02:20.589Z,4.70
2023-05-15T02:04:50.886Z,4.90
2023-05-15T02:07:21.344Z,4.60
2023-05-15T02:09:52.657Z,5.00
2023-05-15T02:12:22.168Z,4.90
2023-05-15T02:14:52.118Z,5.00
2023-05-15T02:17:22.333Z,5.10
2023-05-15T02:19:51.262Z,5.10
2023-05-15T02:22:19.384Z,5.20
2023-05-15T02:24:47.468Z,5.40
2023-05-15T02:27:22.764Z,5.70
2023-05-15T02:29:50.871Z,5.50
2023-05-15T02:32:24.829Z,5.30
2023-05-15T02:35:00.192Z,5.00
2023-05-15T02:37:32.258Z,5.30
2023-05-15T02:40:01.641Z,5.30
2023-05-15T02:42:31.282Z,5.50
2023-05-15T02:45:02.540Z,5.40
2023-05-15T02:47:32.416Z,5.70
2023-05-15T02:50:02.728Z,5.20
2023-05-15T02:52:35.414Z,5.70
2023-05-15T02:55:04.191Z,5.00
2023-05-15T02:57:32.290Z,5.60
2023-05-15T03:00:00.864Z,5.20
2023-05-15T03:02:29.201Z,5.60
2023-05-15T03:04:57.949Z,5.50
2023-05-15T03:07:27.277Z,5.20
2023-05-15T03:09:55.790Z,5.50
2023-05-15T03:12:23.966Z,5.10
2023-05-15T03:14:52.099Z,5.40
2023-05-15T03:17:20.248Z,5.30
2023-05-15T03:19:48.501Z,5.30
2023-05-15T03:22:16.756Z,5.50
2023-05-15T03:24:45.516Z,5.00
2023-05-15T03:27:13.746Z,5.50
2023-05-15T03:29:42.850Z,5.30
2023-05-15T03:32:11.214Z,5.80
2023-05-15T03:34:41.059Z,5.30
2023-05-15T03:37:09.425Z,5.50
2023-05-15T03:39:37.799Z,5.60
2023-05-15T03:42:06.474Z,6.30
2023-05-15T03:44:35.111Z,6.00
2023-05-15T03:47:03.379Z,5.80
2023-05-15T03:49:31.750Z,5.60
2023-05-15T03:51:59.911Z,5.60
2023-05-15T03:54:28.153Z,6.30
2023-05-15T03:56:57.227Z,5.90
2023-05-15T03:59:25.691Z,6.50
2023-05-15T04:02:04.274Z,6.40
2023-05-15T04:04:33.852Z,6.80
2023-05-15T04:07:02.435Z,6.10
2023-05-15T04:09:30.737Z,6.40
2023-05-15T04:11:58.891Z,6.20
2023-05-15T04:14:27.153Z,5.50
2023-05-15T04:16:55.642Z,6.00
2023-05-15T04:19:23.784Z,6.30
2023-05-15T04:21:51.887Z,5.40
2023-05-15T04:24:19.980Z,5.40
2023-05-15T04:26:48.205Z,5.30
2023-05-15T04:29:16.437Z,5.40
2023-05-15T04:31:44.685Z,5.80
2023-05-15T04:34:12.809Z,5.60
2023-05-15T04:36:42.969Z,5.70
2023-05-15T04:39:11.318Z,5.30
2023-05-15T04:41:39.673Z,5.80
2023-05-15T04:44:08.764Z,6.30
2023-05-15T04:46:37.736Z,5.40
2023-05-15T04:49:06.902Z,5.40
2023-05-15T04:51:35.234Z,5.70
2023-05-15T04:54:03.576Z,5.20
2023-05-15T04:56:31.955Z,5.60
2023-05-15T04:59:00.234Z,5.30
2023-05-15T05:01:29.411Z,5.60
2023-05-15T05:03:57.645Z,5.70
2023-05-15T05:06:25.828Z,5.90
2023-05-15T05:08:53.960Z,5.80
2023-05-15T05:11:22.111Z,6.10
2023-05-15T05:13:51.026Z,5.80
2023-05-15T05:16:19.216Z,5.40
2023-05-15T05:18:47.392Z,5.50
2023-05-15T05:21:15.521Z,5.70
2023-05-15T05:23:43.697Z,6.10
2023-05-15T05:26:11.795Z,5.70
2023-05-15T05:28:40.142Z,6.00
2023-05-15T05:31:08.325Z,5.60
2023-05-15T05:33:36.524Z,5.80
2023-05-15T05:36:05.636Z,6.00
2023-05-15T05:38:34.571Z,6.30
2023-05-15T05:41:03.536Z,5.70
2023-05-15T05:43:31.695Z,5.40
2023-05-15T05:45:59.872Z,5.60
2023-05-15T05:48:28.136Z,5.80
2023-05-15T05:50:56.283Z,5.60
2023-05-15T05:53:24.535Z,5.70
2023-05-15T05:55:52.699Z,5.50
2023-05-15T05:58:25.538Z,5.40
2023-05-15T06:03:23.028Z,5.70
2023-05-15T06:05:51.580Z,5.90
2023-05-15T06:08:20.397Z,6.20
2023-05-15T06:10:48.788Z,6.50
2023-05-15T06:13:16.905Z,6.10
2023-05-15T06:15:46.478Z,6.10
2023-05-15T06:18:14.721Z,5.80
2023-05-15T06:20:43.247Z,6.50
2023-05-15T06:23:11.392Z,6.20
2023-05-15T06:25:40.127Z,5.60
2023-05-15T06:28:08.449Z,6.50
2023-05-15T06:30:36.625Z,6.30
2023-05-15T06:33:04.905Z,5.60
2023-05-15T06:35:33.025Z,6.00
2023-05-15T06:38:02.106Z,5.40
2023-05-15T06:40:30.430Z,5.60
2023-05-15T06:42:59.052Z,5.90
2023-05-15T06:45:27.796Z,5.30
2023-05-15T06:47:57.038Z,5.70
2023-05-15T06:50:26.257Z,6.00
2023-05-15T06:52:54.920Z,5.60
2023-05-15T06:55:23.236Z,6.10
2023-05-15T06:57:51.450Z,5.60
2023-05-15T07:00:19.775Z,5.60
2023-05-15T07:02:48.118Z,6.00
2023-05-15T07:05:16.508Z,5.20
2023-05-15T07:07:44.692Z,5.90
2023-05-15T07:10:13.082Z,5.50
2023-05-15T07:12:41.501Z,5.30
2023-05-15T07:15:10.153Z,5.60
2023-05-15T07:17:38.759Z,5.60
2023-05-15T07:20:07.568Z,5.50
2023-05-15T07:22:44.473Z,5.40
2023-05-15T07:25:17.194Z,5.20
2023-05-15T07:27:45.372Z,5.50
2023-05-15T07:30:13.884Z,5.70
2023-05-15T07:32:42.297Z,5.50
2023-05-15T07:35:11.729Z,5.40
2023-05-15T07:37:40.113Z,5.60
2023-05-15T07:40:08.859Z,4.90
2023-05-15T07:42:36.975Z,5.50
2023-05-15T07:45:06.111Z,5.50
2023-05-15T07:47:35.799Z,5.10
2023-05-15T07:50:04.369Z,5.60
2023-05-15T07:52:32.503Z,5.30
2023-05-15T07:55:01.470Z,5.30
2023-05-15T07:57:29.973Z,5.40
2023-05-15T07:59:59.039Z,5.70
2023-05-15T08:02:27.197Z,5.60
2023-05-15T08:04:55.366Z,5.10
2023-05-15T08:07:23.535Z,5.80
2023-05-15T08:09:52.047Z,5.40
2023-05-15T08:12:21.916Z,5.90
2023-05-15T08:14:51.349Z,5.70
2023-05-15T08:17:20.907Z,5.60
2023-05-15T08:19:49.404Z,6.20
2023-05-15T08:22:17.592Z,5.90
2023-05-15T08:24:45.899Z,5.50
2023-05-15T08:27:14.131Z,5.40
2023-05-15T08:29:42.305Z,4.90
2023-05-15T08:32:10.811Z,4.60
2023-05-15T08:34:39.122Z,5.20
2023-05-15T08:37:07.313Z,5.10
2023-05-15T08:39:35.489Z,5.20
2023-05-15T08:42:36.123Z,5.10
2023-05-15T08:45:05.606Z,4.80
2023-05-15T08:47:39.204Z,5.40
2023-05-15T08:50:16.007Z,4.80
2023-05-15T08:52:48.033Z,5.20
2023-05-15T08:55:17.374Z,5.10
2023-05-15T08:57:46.349Z,5.20
2023-05-15T09:00:15.287Z,5.10
2023-05-15T09:02:43.794Z,5.20
2023-05-15T09:05:12.291Z,5.00
2023-05-15T09:07:42.534Z,5.20
2023-05-15T09:10:11.922Z,5.10
2023-05-15T09:12:44.002Z,4.70
2023-05-15T09:15:14.410Z,4.90
2023-05-15T09:17:43.420Z,4.70
2023-05-15T09:20:31.302Z,4.80
2023-05-15T09:23:01.949Z,5.50
2023-05-15T09:25:39.798Z,5.40
2023-05-15T09:28:10.810Z,4.60
2023-05-15T09:30:41.887Z,4.90
2023-05-15T09:33:12.163Z,4.80
2023-05-15T09:35:41.147Z,4.80
2023-05-15T09:38:11.913Z,4.60
2023-05-15T09:40:43.118Z,4.40
2023-05-15T09:43:12.352Z,4.70
2023-05-15T09:45:40.600Z,5.00
2023-05-15T09:48:11.985Z,4.90
2023-05-15T09:50:42.022Z,4.60
2023-05-15T09:53:13.111Z,5.50
2023-05-15T09:55:42.682Z,5.40
2023-05-15T09:58:13.518Z,5.50
2023-05-15T10:00:48.673Z,5.50
2023-05-15T10:03:20.642Z,5.60
2023-05-15T10:05:48.962Z,5.20
2023-05-15T10:08:27.443Z,4.70
2023-05-15T10:11:00.396Z,4.80
2023-05-15T10:13:31.988Z,4.80
2023-05-15T10:16:03.696Z,5.20
2023-05-15T10:18:35.329Z,5.30
2023-05-15T10:21:04.774Z,4.90
2023-05-15T10:23:36.496Z,4.80
2023-05-15T10:26:13.010Z,4.80
2023-05-15T10:28:44.120Z,4.60
2023-05-15T10:31:13.929Z,4.90
2023-05-15T10:33:43.061Z,4.70
2023-05-15T10:36:11.807Z,4.50
2023-05-15T10:38:40.575Z,4.50
2023-05-15T10:41:17.636Z,4.50
2023-05-15T10:43:48.920Z,4.30
2023-05-15T10:46:17.506Z,4.30
2023-05-15T10:48:45.942Z,4.30
2023-05-15T10:51:18.682Z,4.00
2023-05-15T10:53:47.088Z,5.20
2023-05-15T10:56:17.251Z,4.50
2023-05-15T10:58:50.263Z,4.10
2023-05-15T11:01:45.291Z,5.10
2023-05-15T11:04:14.776Z,5.60
2023-05-15T11:06:44.879Z,5.90
2023-05-15T11:09:40.350Z,5.50
2023-05-15T11:12:12.598Z,4.80
2023-05-15T11:15:01.011Z,5.00
2023-05-15T11:17:32.549Z,5.10
2023-05-15T11:20:00.986Z,5.00
2023-05-15T11:22:34.016Z,5.70
2023-05-15T11:25:02.158Z,5.10
2023-05-15T11:27:41.785Z,4.80
2023-05-15T11:30:22.264Z,5.20
2023-05-15T11:32:59.754Z,5.00
2023-05-15T11:35:32.807Z,5.40
2023-05-15T11:38:10.449Z,5.60
2023-05-15T11:41:18.177Z,5.30
2023-05-15T11:43:46.992Z,4.90
2023-05-15T11:46:15.710Z,5.60
2023-05-15T11:48:48.103Z,5.30
2023-05-15T11:51:27.081Z,5.10
2023-05-15T11:53:56.810Z,5.20
2023-05-15T11:56:28.622Z,4.90
2023-05-15T11:59:01.417Z,5.00
2023-05-15T12:01:40.621Z,5.00
2023-05-15T12:04:15.377Z,5.00
2023-05-15T12:06:44.989Z,4.90
2023-05-15T12:09:16.771Z,4.90
2023-05-15T12:11:55.864Z,4.50
2023-05-15T12:14:31.458Z,4.80
2023-05-15T12:17:03.097Z,4.60
2023-05-15T12:19:32.186Z,4.20
2023-05-15T12:22:00.395Z,4.70
2023-05-15T12:24:28.541Z,4.70
2023-05-15T12:26:57.590Z,4.50
2023-05-15T12:29:27.152Z,4.50
2023-05-15T12:31:55.451Z,4.70
2023-05-15T12:34:24.791Z,4.80
2023-05-15T12:36:52.890Z,4.40
2023-05-15T12:39:21.270Z,4.50
2023-05-15T12:41:50.122Z,4.10
2023-05-15T12:44:18.546Z,3.80
2023-05-15T12:46:47.934Z,4.10
2023-05-15T12:49:22.115Z,4.30
2023-05-15T12:51:50.415Z,4.00
2023-05-15T12:54:20.105Z,4.20
2023-05-15T12:56:48.699Z,4.00
2023-05-15T12:59:16.897Z,3.90
2023-05-15T13:01:45.406Z,3.60
2023-05-15T13:04:13.785Z,3.80
2023-05-15T13:06:47.053Z,3.40
2023-05-15T13:09:22.950Z,3.50
2023-05-15T13:11:51.260Z,3.70
2023-05-15T13:14:19.849Z,3.50
2023-05-15T13:16:48.305Z,4.00
2023-05-15T13:19:17.759Z,4.30
2023-05-15T13:21:46.146Z,4.40
2023-05-15T13:24:14.294Z,4.00
2023-05-15T13:26:42.550Z,4.30
2023-05-15T13:29:10.714Z,4.20
2023-05-15T13:31:39.227Z,4.40
2023-05-15T13:34:07.372Z,4.90
2023-05-15T13:36:35.753Z,5.00
2023-05-15T13:39:04.064Z,5.10
2023-05-15T13:41:32.202Z,4.70
2023-05-15T13:44:00.582Z,4.50
2023-05-15T13:46:28.826Z,5.80
2023-05-15T13:48:57.189Z,5.40
2023-05-15T13:51:25.442Z,5.70
2023-05-15T13:53:53.629Z,5.60
2023-05-15T13:56:22.447Z,5.80
2023-05-15T13:58:50.933Z,5.20
2023-05-15T14:01:19.087Z,5.60
2023-05-15T14:03:47.326Z,5.70
2023-05-15T14:06:15.512Z,5.90
2023-05-15T14:08:43.735Z,5.90
2023-05-15T14:11:12.419Z,6.10
2023-05-15T14:13:42.879Z,6.20
2023-05-15T14:16:11.511Z,6.40
2023-05-15T14:18:39.702Z,6.30
2023-05-15T14:21:08.044Z,6.70
2023-05-15T14:23:36.480Z,6.00
2023-05-15T14:26:04.785Z,6.70
2023-05-15T14:28:33.650Z,6.10
2023-05-15T14:31:02.965Z,6.40
2023-05-15T14:33:32.235Z,6.20
2023-05-15T14:36:02.031Z,6.20
2023-05-15T14:38:31.412Z,6.80
2023-05-15T14:41:00.521Z,6.40
2023-05-15T14:43:30.703Z,7.30
2023-05-15T14:46:01.138Z,7.00
2023-05-15T14:48:32.417Z,6.90
2023-05-15T14:51:03.601Z,6.60
2023-05-15T14:53:35.327Z,7.10
2023-05-15T14:56:05.095Z,6.90
2023-05-15T14:58:34.803Z,7.00
2023-05-15T15:01:04.917Z,7.30
2023-05-15T15:03:34.566Z,7.30
2023-05-15T15:06:04.604Z,7.70
2023-05-15T15:08:33.842Z,8.10
2023-05-15T15:11:03.244Z,7.30
2023-05-15T15:13:32.210Z,6.50
2023-05-15T15:16:00.464Z,7.10
2023-05-15T15:18:28.833Z,7.20
2023-05-15T15:20:57.731Z,6.20
2023-05-15T15:23:25.910Z,6.80
2023-05-15T15:25:54.084Z,6.50
2023-05-15T15:28:22.257Z,6.70
2023-05-15T15:30:50.416Z,7.50
2023-05-15T15:33:18.565Z,7.20
2023-05-15T15:35:46.773Z,7.10
2023-05-15T15:38:15.605Z,6.80
2023-05-15T15:40:43.716Z,6.40
2023-05-15T15:43:11.836Z,7.20
2023-05-15T15:45:40.033Z,7.00
2023-05-15T15:48:08.185Z,7.20
2023-05-15T15:50:36.357Z,7.20
2023-05-15T15:53:04.561Z,7.70
2023-05-15T15:55:32.798Z,7.00
2023-05-15T15:58:00.932Z,6.70
2023-05-15T16:00:29.282Z,7.10
2023-05-15T16:02:57.485Z,6.70
2023-05-15T16:05:25.653Z,7.10
2023-05-15T16:07:53.993Z,6.00
2023-05-15T16:10:22.974Z,6.60
2023-05-15T16:12:51.492Z,6.40
2023-05-15T16:15:23.018Z,7.60
2023-05-15T16:17:53.724Z,6.60
2023-05-15T16:20:23.933Z,7.40
2023-05-15T16:22:52.833Z,7.70
2023-05-15T16:25:21.175Z,7.60
2023-05-15T16:27:49.320Z,7.10
2023-05-15T16:30:17.466Z,8.00
2023-05-15T16:32:45.684Z,7.30
2023-05-15T16:35:14.000Z,7.30
2023-05-15T16:37:42.202Z,7.20
2023-05-15T16:40:11.443Z,7.40
2023-05-15T16:42:41.430Z,7.30
2023-05-15T16:45:09.969Z,7.30
2023-05-15T16:47:41.963Z,7.30
2023-05-15T16:50:11.111Z,7.10
2023-05-15T16:52:45.342Z,7.20
2023-05-15T16:55:15.564Z,7.50
2023-05-15T16:57:45.370Z,7.60
2023-05-15T17:00:14.789Z,7.40
2023-05-15T17:02:43.640Z,7.70
2023-05-15T17:05:12.838Z,7.40
2023-05-15T17:07:42.172Z,7.60
2023-05-15T17:10:12.195Z,7.70
2023-05-15T17:12:40.402Z,7.20
2023-05-15T17:15:09.209Z,7.40
2023-05-15T17:17:37.399Z,7.30
2023-05-15T17:20:06.117Z,6.30
2023-05-15T17:22:34.395Z,7.70
2023-05-15T17:25:02.504Z,7.50
2023-05-15T17:27:31.253Z,7.40
2023-05-15T17:29:59.392Z,8.00
2023-05-15T17:32:27.662Z,7.50
2023-05-15T17:34:55.984Z,7.60
2023-05-15T17:37:24.120Z,6.90
2023-05-15T17:39:53.116Z,7.60
2023-05-15T17:42:22.209Z,7.60
2023-05-15T17:44:50.322Z,7.30
2023-05-15T17:47:18.383Z,8.20
2023-05-15T17:49:46.493Z,8.10
2023-05-15T17:52:14.688Z,7.20
2023-05-15T17:54:42.750Z,7.70
2023-05-15T17:57:11.009Z,7.20
2023-05-15T17:59:39.218Z,7.90
2023-05-15T18:02:07.453Z,8.30
2023-05-15T18:04:35.784Z,8.30
2023-05-15T18:07:04.017Z,8.00
2023-05-15T18:09:32.333Z,7.90
2023-05-15T18:12:00.526Z,7.20
2023-05-15T18:14:28.850Z,8.20
2023-05-15T18:16:57.632Z,8.00
2023-05-15T18:19:25.962Z,8.00
2023-05-15T18:21:54.321Z,7.90
2023-05-15T18:24:22.420Z,7.60
2023-05-15T18:26:50.545Z,8.70
2023-05-15T18:29:18.710Z,7.20
2023-05-15T18:31:46.917Z,7.90
2023-05-15T18:34:15.052Z,7.60
2023-05-15T18:36:43.206Z,7.10
2023-05-15T18:39:11.446Z,7.70
2023-05-15T18:41:39.673Z,7.70
2023-05-15T18:44:07.944Z,7.80
2023-05-15T18:46:36.136Z,7.30
2023-05-15T18:49:04.273Z,7.70
2023-05-15T18:51:32.468Z,7.60
2023-05-15T18:54:00.688Z,7.90
2023-05-15T18:56:28.837Z,7.50
2023-05-15T18:58:56.984Z,7.30
2023-05-15T19:01:25.111Z,7.10
2023-05-15T19:03:53.273Z,7.10
2023-05-15T19:06:21.375Z,7.40
2023-05-15T19:08:49.541Z,7.20
2023-05-15T19:11:17.778Z,7.10
2023-05-15T19:13:46.110Z,7.00
2023-05-15T19:16:14.237Z,7.20
2023-05-15T19:18:42.377Z,6.60
2023-05-15T19:21:10.782Z,6.30
2023-05-15T19:23:38.966Z,7.10
2023-05-15T19:26:07.276Z,8.00
2023-05-15T19:28:35.531Z,7.20
2023-05-15T19:31:04.654Z,7.20
2023-05-15T19:33:33.900Z,6.80
2023-05-15T19:36:02.181Z,7.30
2023-05-15T19:38:30.458Z,7.30
2023-05-15T19:40:59.060Z,6.60
2023-05-15T19:43:27.637Z,7.50
2023-05-15T19:45:55.824Z,7.80
2023-05-15T19:48:24.223Z,7.70
2023-05-15T19:50:52.380Z,7.50
2023-05-15T19:53:20.785Z,8.20
2023-05-15T19:55:48.906Z,6.90
2023-05-15T19:58:17.044Z,8.20
2023-05-15T20:00:46.264Z,8.40
2023-05-15T20:03:14.418Z,8.10
2023-05-15T20:05:43.424Z,7.90
2023-05-15T20:08:12.810Z,8.90
2023-05-15T20:10:41.415Z,9.30
2023-05-15T20:13:09.494Z,9.00
2023-05-15T20:15:40.138Z,9.60
2023-05-15T20:18:08.491Z,9.20
2023-05-15T20:20:36.773Z,9.60
2023-05-15T20:23:04.864Z,10.00
2023-05-15T20:25:33.247Z,10.50
2023-05-15T20:28:01.559Z,10.60
2023-05-15T20:30:29.904Z,12.40
2023-05-15T20:32:58.424Z,10.20
2023-05-15T20:35:27.074Z,11.00
2023-05-15T20:37:56.474Z,12.20
2023-05-15T20:40:28.202Z,11.90
2023-05-15T20:42:57.612Z,11.70
2023-05-15T20:45:25.959Z,12.50
2023-05-15T20:47:54.237Z,12.40
2023-05-15T20:50:22.438Z,13.90
2023-05-15T20:52:53.192Z,13.00
2023-05-15T20:55:21.769Z,12.90
2023-05-15T20:57:50.777Z,14.20
2023-05-15T21:00:19.124Z,13.90
2023-05-15T21:02:47.304Z,14.60
2023-05-15T21:05:15.813Z,15.00
2023-05-15T21:07:44.468Z,14.90
2023-05-15T21:10:12.812Z,13.60
2023-05-15T21:12:41.004Z,15.30
2023-05-15T21:15:09.851Z,16.40
2023-05-15T21:17:38.219Z,15.50
2023-05-15T21:20:07.032Z,15.20
2023-05-15T21:22:35.138Z,16.30
2023-05-15T21:25:03.568Z,16.00
2023-05-15T21:27:31.810Z,15.80
2023-05-15T21:30:00.161Z,15.70
2023-05-15T21:32:28.698Z,16.40
2023-05-15T21:34:56.899Z,16.20
2023-05-15T21:37:24.962Z,16.40
2023-05-15T21:39:53.180Z,16.90
2023-05-15T21:42:21.362Z,16.90
2023-05-15T21:44:49.588Z,15.40
2023-05-15T21:47:17.805Z,15.20
2023-05-15T21:49:46.069Z,16.30
2023-05-15T21:52:14.748Z,18.10
2023-05-15T21:54:43.971Z,17.40
2023-05-15T21:57:12.145Z,17.70
2023-05-15T21:59:40.378Z,17.30
2023-05-15T22:02:08.552Z,18.30
2023-05-15T22:04:36.765Z,17.30
2023-05-15T22:07:05.027Z,18.00
2023-05-15T22:09:33.070Z,18.40
2023-05-15T22:12:01.692Z,18.70
2023-05-15T22:14:29.855Z,17.80
2023-05-15T22:16:57.972Z,18.40
2023-05-15T22:19:33.075Z,19.60
2023-05-15T22:22:03.604Z,17.50
2023-05-15T22:24:31.758Z,18.70
2023-05-15T22:26:59.995Z,18.90
2023-05-15T22:29:28.053Z,18.50
2023-05-15T22:31:56.425Z,18.20
2023-05-15T22:34:28.877Z,17.70
2023-05-15T22:36:56.982Z,18.90
2023-05-15T22:39:25.030Z,17.50
2023-05-15T22:41:53.373Z,18.80
2023-05-15T22:44:21.945Z,18.60
2023-05-15T22:46:50.031Z,18.10
2023-05-15T22:49:25.739Z,18.60
2023-05-15T22:51:56.092Z,17.40
2023-05-15T22:54:24.378Z,18.30
2023-05-15T22:56:52.964Z,17.70
2023-05-15T22:59:21.243Z,16.80
2023-05-15T23:01:49.850Z,17.50
2023-05-15T23:04:18.430Z,15.80
2023-05-15T23:06:46.732Z,15.50
2023-05-15T23:09:14.909Z,15.20
2023-05-15T23:11:43.064Z,16.00
2023-05-15T23:14:12.137Z,15.10
2023-05-15T23:16:40.247Z,16.00
2023-05-15T23:19:08.469Z,15.20
2023-05-15T23:21:36.625Z,15.30
2023-05-15T23:24:05.192Z,15.00
2023-05-15T23:26:33.280Z,15.10
2023-05-15T23:29:01.484Z,14.30
2023-05-15T23:31:29.758Z,14.60
2023-05-15T23:33:57.907Z,14.80
2023-05-15T23:36:26.294Z,14.10
2023-05-15T23:38:54.462Z,13.50
2023-05-15T23:41:22.862Z,13.90
2023-05-15T23:43:51.320Z,13.40
2023-05-15T23:46:19.561Z,13.30
2023-05-15T23:48:47.781Z,13.70
2023-05-15T23:51:16.054Z,13.20
2023-05-15T23:53:44.201Z,13.40
2023-05-15T23:56:12.344Z,13.10
2023-05-15T23:58:41.183Z,13.50
